createdAt,value
2022-10-20T00:00:00.000Z,12.84
2022-10-20T00:15:00.000Z,12.68
2022-10-20T00:30:00.000Z,12.45
2022-10-20T00:45:00.000Z,12.3
2022-10-20T01:00:00.000Z,12.17
2022-10-20T01:15:00.000Z,12.05
2022-10-20T01:30:00.000Z,11.89
2022-10-20T02:00:00.000Z,11.57
2022-10-20T02:00:00.000Z,11.45
2022-10-20T02:15:00.000Z,11.18
2022-10-20T02:30:00.000Z,10.99
2022-10-20T02:45:00.000Z,10.73
2022-10-20T03:00:00.000Z,10.66
2022-10-20T03:15:00.000Z,10.56
2022-10-20T03:30:00.000Z,10.59
2022-10-20T03:45:00.000Z,10.55
2022-10-20T04:00:00.000Z,10.61
2022-10-20T04:15:00.000Z,10.69
2022-10-20T04:30:00.000Z,10.62
2022-10-20T04:45:00.000Z,10.5
2022-10-20T05:00:00.000Z,10.37
2022-10-20T05:15:00.000Z,10.02
2022-10-20T05:30:00.000Z,9.85
2022-10-20T05:45:00.000Z,9.93
2022-10-20T06:00:00.000Z,10.04
2022-10-20T06:15:00.000Z,10.39
2022-10-20T06:30:00.000Z,11.21
2022-10-20T06:45:00.000Z,11.37
2022-10-20T07:00:00.000Z,13.86
2022-10-20T07:15:00.000Z,16.27
2022-10-20T07:30:00.000Z,16.72
2022-10-20T07:45:00.000Z,16.98
2022-10-20T08:00:00.000Z,15.49
2022-10-20T08:15:00.000Z,18.3
2022-10-20T08:30:00.000Z,20.32
2022-10-20T08:45:00.000Z,21.18
2022-10-20T09:00:00.000Z,21.72
2022-10-20T09:15:00.000Z,21.96
2022-10-20T09:30:00.000Z,21.91
2022-10-20T09:45:00.000Z,21.5
2022-10-20T10:00:00.000Z,22.32
2022-10-20T10:15:00.000Z,22.11
2022-10-20T10:30:00.000Z,21.46
2022-10-20T10:45:00.000Z,21.34
2022-10-20T11:00:00.000Z,20.21
2022-10-20T11:15:00.000Z,20.69
2022-10-20T11:30:00.000Z,20.98
2022-10-20T11:45:00.000Z,20.75
2022-10-20T12:00:00.000Z,20.81
2022-10-20T12:15:00.000Z,20.16
2022-10-20T12:30:00.000Z,19.44
2022-10-20T12:45:00.000Z,19.57
2022-10-20T13:00:00.000Z,19.38
2022-10-20T13:15:00.000Z,19.32
2022-10-20T13:30:00.000Z,18.54
2022-10-20T13:45:00.000Z,18.46
2022-10-20T14:00:00.000Z,18.75
2022-10-20T14:15:00.000Z,18.57
2022-10-20T14:30:00.000Z,18.11
2022-10-20T14:45:00.000Z,17.69
2022-10-20T15:00:00.000Z,17.29
2022-10-20T15:15:00.000Z,16.9
2022-10-20T15:30:00.000Z,16.68
2022-10-20T15:45:00.000Z,16.28
2022-10-20T16:00:00.000Z,15.88
2022-10-20T16:15:00.000Z,15.45
2022-10-20T16:30:00.000Z,15.06
2022-10-20T16:45:00.000Z,14.83
2022-10-20T17:00:00.000Z,14.57
2022-10-20T17:15:00.000Z,14.36
2022-10-20T17:30:00.000Z,14.15
2022-10-20T17:45:00.000Z,13.83
2022-10-20T18:00:00.000Z,13.65
2022-10-20T18:15:00.000Z,13.51
2022-10-20T18:30:00.000Z,13.34
2022-10-20T18:45:00.000Z,12.99
2022-10-20T19:00:00.000Z,12.9
2022-10-20T19:15:00.000Z,12.91
2022-10-20T19:30:00.000Z,12.72
2022-10-20T19:45:00.000Z,12.54
2022-10-20T20:00:00.000Z,12.57
2022-10-20T20:15:00.000Z,12.56
2022-10-20T20:30:00.000Z,12.63
2022-10-20T20:45:00.000Z,12.72
2022-10-20T21:00:00.000Z,12.75
2022-10-20T21:15:00.000Z,12.79
2022-10-20T21:30:00.000Z,12.9
2022-10-20T21:45:00.000Z,12.74
2022-10-20T22:00:00.000Z,12.63
2022-10-20T22:15:00.000Z,12.54
2022-10-20T22:30:00.000Z,12.45
2022-10-20T22:45:00.000Z,12.37
2022-10-20T23:00:00.000Z,12.22
2022-10-20T23:15:00.000Z,11.91
2022-10-20T23:30:00.000Z,11.98
2022-10-20T23:45:00.000Z,12.01
